Tiempo atmosférico en la estación meteorológica de Quintana del Castillo, Villameca, León (995 m.)



Fecha
DESCASC
Temp. máxima en grados centígrados (hora)
DESCASC
Temp. mínima en grados centígrados (hora)
DESCASC
Temp. media en grados centígrados
DESCASC
Racha de viento máxima en m/sg (hora)
DESCASC
Velocidad máxima media en intervalos de 10 minutos(hora)
DESCASC
Precipitaciones diarias en mm
DESCASC
Precipitaciones de 00:00 a 06:00 en mm
DESCASC
Precipitaciones de 06:00 a 12:00 en mm
DESCASC
Precipitaciones de 12:00 a 18:00 en mm
DESCASC
Precipitaciones de 18:00 a 24:00 en mm
DESCASC
22-01-2020 8.5 (15:20) 1.6 (23:40) 5.1 15.83 (04:50) 10 (05:20) 0.8 0 0.8 0 0
21-01-2020 7.3 (15:20) -1.1 (02:00) 3.1 15.83 (10:50) 11.39 (10:50) 0 0 0 0 0
20-01-2020 3.7 (15:10) -0.3 (04:00) 1.7 23.06 (06:40) 15.83 (06:40) 0 0 0 0 0
19-01-2020 5 (13:00) 1.3 (00:00) 3.1 27.5 (08:40) 19.44 (09:50) 0 0 0 0 0
18-01-2020 7.2 (16:30) 1.2 (00:00) 4.2 14.17 (16:40) 8.61 (16:40) 3 0 0.4 2.6 0
17-01-2020 6.1 (14:40) 1.9 (00:00) 4 15.28 (13:00) 8.89 (13:00) 2.4 0.6 1.8 0 0
16-01-2020 9.4 (14:20) 5.1 (00:00) 7.2 12.22 (13:40) 5.28 (06:50) 0.4 0.2 0.2 0 0
15-01-2020 10.5 (16:20) 1.8 (00:00) 6.1 13.61 (09:30) 7.5 (09:40) 5.6 0 5.2 0 0.4
14-01-2020 4.6 (16:30) -1.8 (-00:0) 1.4 9.17 (20:30) 5 (20:30) 0 0 0 0 0
13-01-2020 2.9 (14:40) -4.4 (-00:0) -0.8 4.17 (14:50) 3.06 (02:40) 0 0 0 0 0
12-01-2020 6.5 (16:00) -4.7 (-00:0) 0.9 6.11 (02:10) 3.89 (02:10) 0 0 0 0 0
11-01-2020 8.4 (16:00) -3 (-00:0) 2.7 4.72 (20:50) 3.33 (01:00) 0 0 0 0 0
10-01-2020 8.3 (15:30) -0.5 (-00:0) 3.9 7.5 (11:20) 5.28 (11:20) 0 0 0 0 0
09-01-2020 11.8 (14:40) 1.6 (00:00) 6.7 15.83 (16:00) 10.56 (14:50) 0.8 0 0 0.8 0
08-01-2020 14.2 (15:30) 1.2 (00:00) 7.7 5.83 (23:59) 4.44 (21:00) 0 0 0 0 0
07-01-2020 11.8 (15:20) -4.8 (-00:0) 3.5 4.17 (04:30) 3.33 (04:00) 0 0 0 0 0
06-01-2020 6.4 (18:00) -4.6 (-00:0) 0.9 3.89 (21:00) 2.78 (02:50) 0 0 0 0 0
05-01-2020 13.8 (15:50) -1.8 (-00:0) 6 6.94 (12:50) 4.17 (22:10) -- 0 0 -- 0
04-01-2020 2.9 (11:50) -1.3 (-00:0) 0.8 3.89 (06:10) 3.06 (06:00) 0.2 0 0 0 0.2
03-01-2020 5.1 (17:20) -0.5 (-00:0) 2.3 8.89 (01:20) 6.39 (02:30) 0.2 0 0.2 0 0
02-01-2020 7.5 (15:30) -1.4 (-00:0) 3.1 4.72 (00:50) 3.61 (03:50) 0 0 0 0 0
01-01-2020 11.9 (16:00) -0.4 (00:00) 5.7 4.44 (03:20) 3.61 (03:20) 0 0 0 0 0
31-12-2019 15.1 (15:50) 1.6 (00:00) 8.4 7.22 (03:00) 3.89 (00:40) 0 0 0 0 0
30-12-2019 -- (--) -- (--) -- -- (--) -- (--) -- 0 0 -- 0
29-12-2019 15.9 (15:00) 1.9 (00:00) 8.9 5.56 (08:50) 4.44 (02:20) 0 0 0 0 0
28-12-2019 16.2 (15:50) 0.5 (00:00) 8.4 6.11 (00:50) 4.72 (00:40) 0 0 0 0 0
27-12-2019 11 (15:30) -1.9 (-00:0) 4.6 5 (21:50) 4.17 (19:30) 0.2 0 0.2 0 0

Gráficas

Temp. máximas Temp. mínimas Temp. medias Precipitaciones Rachas de viento máximas Velocidades máximas media en intervalos de 10 minutos

Datos horarios

Fecha y hora oficial Temperatura (ºC) Velocidad del viento (km/h) Dirección del viento Racha (km/h) Dirección de racha Precipitación (mm) Presión (hPa) Tendencia (hPa) Humedad (%)
2020-01-25 23:00:00 0.1 9 Norte 12 Norte 0 -- -- 94
2020-01-25 22:00:00 0.6 8 Nordeste 10 Norte 0 -- -- 96
2020-01-25 21:00:00 1.5 6 Nordeste 9 Nordeste 0 -- -- 97
2020-01-25 20:00:00 2.8 4 Nordeste 8 Norte 0 -- -- 96
2020-01-25 19:00:00 4.4 0 Calma 9 Sudoeste 0 -- -- 89
2020-01-25 18:00:00 5.8 4 Sudoeste 12 Sudoeste 0 -- -- 85
2020-01-25 17:00:00 6.8 5 Sur 12 Sur 0 -- -- 77
2020-01-25 16:00:00 7.9 4 Sudoeste 12 Sur 0 -- -- 68
2020-01-25 15:00:00 8 4 Sudoeste 13 Sudeste 0 -- -- 70
2020-01-25 14:00:00 7.9 5 Sur 16 Sudoeste 0 -- -- 73
2020-01-25 13:00:00 7.7 6 Sudoeste 13 Sur 0 -- -- 74
2020-01-25 12:00:00 6 3 Sudoeste 9 Norte 0 -- -- 86
2020-01-25 11:00:00 3.3 4 Norte 9 Norte 0 -- -- 97
2020-01-25 10:00:00 2.6 6 Norte 9 Norte 0 -- -- 99
2020-01-25 09:00:00 2.5 3 Norte 5 Norte 0 -- -- 99
2020-01-25 08:00:00 2.9 4 Nordeste 5 Nordeste 0 -- -- 99
2020-01-25 07:00:00 3.1 2 Nordeste 5 Norte 0 -- -- 99
2020-01-25 06:00:00 3 3 Nordeste 5 Nordeste 0 -- -- 100
2020-01-25 05:00:00 3 3 Nordeste 4 Nordeste 0 -- -- 100
2020-01-25 04:00:00 3.1 0 Calma 4 Norte 0 -- -- 100
2020-01-25 03:00:00 3.1 0 Calma 4 Sudoeste 0.2 -- -- 99
2020-01-25 02:00:00 3.2 2 Norte 6 Norte 0 -- -- 99
2020-01-25 01:00:00 3.3 4 Norte 7 Norte 0 -- -- 99
2020-01-25 00:00:00 3.1 5 Norte 6 Norte 0 -- -- 99
2020-01-24 23:00:00 3.1 3 Nordeste 7 Norte 0 -- -- 99
2020-01-24 22:00:00 2.8 4 Nordeste 5 Norte 0 -- -- 99
2020-01-24 21:00:00 3.3 0 Calma 7 Norte 0 -- -- 99
2020-01-24 20:00:00 4 6 Norte 7 Norte 0 -- -- 98
2020-01-24 19:00:00 4.3 2 Nordeste 4 Sur 0 -- -- 96
2020-01-24 18:00:00 4.8 2 Sur 9 Sur 0.4 -- -- 94
2020-01-24 17:00:00 5.6 3 Sur 12 Sur 0 -- -- 90
2020-01-24 16:00:00 6.4 4 Sur 12 Sudoeste 0 -- -- 85
2020-01-24 15:00:00 7.2 5 Sudoeste 13 Sudoeste 0 -- -- 78
2020-01-24 14:00:00 7.5 5 Sur 13 Sur 0 -- -- 79
2020-01-24 13:00:00 6.8 7 Sudeste 12 Sur 0 -- -- 79
2020-01-24 12:00:00 5.4 2 Sudeste 5 Sur 0 -- -- 86
2020-01-24 11:00:00 4.5 3 Sudoeste 5 Oeste 0 -- -- 88
2020-01-24 10:00:00 3.8 3 Oeste 4 Oeste 0 -- -- 91
2020-01-24 09:00:00 3.3 0 Calma 10 Sudeste 0 -- -- 92
2020-01-24 08:00:00 3.3 3 Sudeste 8 Sudeste 0 -- -- 92
2020-01-24 07:00:00 3.2 5 Este 8 Sudeste 0 -- -- 93
2020-01-24 06:00:00 2.6 4 Nordeste 8 Nordeste 0 -- -- 95
2020-01-24 05:00:00 2.5 3 Nordeste 5 Este 0 -- -- 96
2020-01-24 04:00:00 3 3 Nordeste 9 Norte 0 -- -- 93
2020-01-24 03:00:00 3.4 2 Nordeste 5 Nordeste 0 -- -- 89
2020-01-24 02:00:00 3.4 2 Nordeste 8 Norte 0 -- -- 86
2020-01-24 01:00:00 2.9 7 Norte 9 Norte 0 -- -- 90
2020-01-24 00:00:00 2.6 0 Calma 10 Norte 0 -- -- 88
2020-01-23 23:00:00 2.6 8 Norte 13 Norte 0 -- -- 87
2020-01-23 22:00:00 1.8 12 Norte 18 Norte 0 -- -- 92
2020-01-23 21:00:00 1.4 7 Nordeste 13 Norte 0 -- -- 92
2020-01-23 20:00:00 1.7 8 Norte 10 Nordeste 0 -- -- 93
2020-01-23 19:00:00 3.2 3 Nordeste 7 Sudoeste 0 -- -- 89
2020-01-23 18:00:00 6.3 3 Sudoeste 14 Sudoeste 0 -- -- 73
2020-01-23 17:00:00 8.1 7 Sur 14 Sudoeste 0 -- -- 65
2020-01-23 16:00:00 8.6 8 Sur 20 Sudeste 0 -- -- 63
2020-01-23 15:00:00 8.3 11 Sudeste 18 Sudeste 0 -- -- 63
2020-01-23 14:00:00 6.9 7 Sur 17 Sur 0 -- -- 72
2020-01-23 13:00:00 5.7 4 Sur 17 Sudeste 0 -- -- 78
2020-01-23 12:00:00 4.3 8 Sudeste 15 Sudeste 0 -- -- 80
2020-01-23 11:00:00 3.2 8 Sudeste 16 Sudeste 0 -- -- 86
2020-01-23 10:00:00 3.3 5 Sudeste 10 Sudeste 0 -- -- 83
2020-01-23 09:00:00 2.5 2 Nordeste 7 Nordeste 0 -- -- 92
2020-01-23 08:00:00 2.4 0 Calma 3 Sur 0 -- -- 89
2020-01-23 07:00:00 2.4 3 Sudeste 7 Sur 0 -- -- 88
2020-01-23 06:00:00 2.8 2 Este 5 Nordeste 0 -- -- 90
2020-01-23 05:00:00 2.2 0 Calma 5 Este 0 -- -- 91
2020-01-23 04:00:00 2 3 Sudoeste 8 Este 0 -- -- 89
2020-01-23 03:00:00 2.6 5 Nordeste 9 Nordeste 0 -- -- 89
2020-01-23 02:00:00 2.7 3 Nordeste 8 Sudeste 0 -- -- 88
2020-01-23 01:00:00 2.6 3 Nordeste 12 Sudeste 0 -- -- 89
2020-01-23 00:00:00 1.9 4 Nordeste 8 Nordeste 0 -- -- 94
2020-01-22 23:00:00 2.2 3 Este 13 Sudeste 0 -- -- 90
2020-01-22 22:00:00 2.7 4 Nordeste 6 Nordeste 0 -- -- 90
2020-01-22 21:00:00 4.2 4 Este 11 Este 0 -- -- 84
2020-01-22 20:00:00 5 8 Este 14 Este 0 -- -- 77
2020-01-22 19:00:00 5.3 9 Este 14 Este 0 -- -- 77
2020-01-22 18:00:00 5.9 8 Este 15 Este 0 -- -- 77
2020-01-22 17:00:00 6.5 11 Este 22 Este 0 -- -- 73
2020-01-22 16:00:00 8.1 17 Sudeste 28 Este 0 -- -- 65
2020-01-22 15:00:00 8 18 Este 27 Sudeste 0 -- -- 64
2020-01-22 14:00:00 6.9 17 Este 29 Este 0 -- -- 73
2020-01-22 13:00:00 5.9 13 Este 21 Este 0 -- -- 82
2020-01-22 12:00:00 4.7 11 Este 16 Sudeste 0 -- -- 90
2020-01-22 11:00:00 4.2 11 Sudeste 27 Este 0.8 -- -- 93
2020-01-22 10:00:00 4.3 13 Este 33 Este 0 -- -- 92
2020-01-22 09:00:00 5.3 17 Este 31 Este 0 -- -- 73
2020-01-22 08:00:00 4.7 15 Este 19 Nordeste 0 -- -- 77
2020-01-22 07:00:00 4.8 13 Este 33 Este 0 -- -- 76
2020-01-22 06:00:00 5.1 26 Este 49 Este 0 -- -- 74
2020-01-22 05:00:00 5.6 35 Este 57 Este 0 -- -- 69
2020-01-22 04:00:00 5.6 26 Nordeste 38 Nordeste 0 -- -- 69
2020-01-22 03:00:00 5.9 18 Este 43 Este 0 -- -- 67
2020-01-22 02:00:00 6.2 28 Este 47 Este 0 -- -- 63
2020-01-22 01:00:00 6 23 Este 39 Nordeste 0 -- -- 61
2020-01-22 00:00:00 6.3 26 Este 39 Nordeste 0 -- -- 60
2020-01-21 23:00:00 6.1 15 Este 28 Este 0 -- -- 60
2020-01-21 22:00:00 6.9 17 Este 28 Este 0 -- -- 58
2020-01-21 21:00:00 7.1 14 Este 36 Este 0 -- -- 60
2020-01-21 20:00:00 6.8 26 Este 43 Nordeste 0 -- -- 63
2020-01-21 19:00:00 5.8 28 Este 43 Este 0 -- -- 65
2020-01-21 18:00:00 5.8 28 Este 42 Este 0 -- -- 68
2020-01-21 17:00:00 5.5 26 Nordeste 53 Nordeste 0 -- -- 73
2020-01-21 16:00:00 6.5 37 Este 50 Este 0 -- -- 65
2020-01-21 15:00:00 6.8 34 Este 51 Nordeste 0 -- -- 66
2020-01-21 14:00:00 2.4 29 Este 43 Nordeste 0 -- -- 95
2020-01-21 13:00:00 5.5 35 Este 47 Este 0 -- -- 62
2020-01-21 12:00:00 5.7 32 Este 52 Este 0 -- -- 60
2020-01-21 11:00:00 4.7 41 Nordeste 57 Nordeste 0 -- -- 63
2020-01-21 10:00:00 2.9 18 Este 38 Nordeste 0 -- -- 67
2020-01-21 09:00:00 3 18 Este 45 Nordeste 0 -- -- 67
2020-01-21 08:00:00 3.2 32 Nordeste 46 Nordeste 0 -- -- 67
2020-01-21 07:00:00 3.3 23 Nordeste 34 Nordeste 0 -- -- 66
2020-01-21 06:00:00 3.4 18 Este 37 Este 0 -- -- 63
2020-01-21 05:00:00 3.4 28 Este 52 Este 0 -- -- 64
2020-01-21 04:00:00 1.8 13 Este 23 Este 0 -- -- 70
2020-01-21 03:00:00 -0.5 3 Sudoeste 15 Nordeste 0 -- -- 72
2020-01-21 02:00:00 -1.1 7 Oeste 12 Oeste 0 -- -- 74
2020-01-21 01:00:00 -0.5 8 Oeste 15 Oeste 0 -- -- 71
2020-01-21 00:00:00 2.3 4 Este 24 Este 0 -- -- 61
2020-01-20 23:00:00 1.9 8 Nordeste 27 Nordeste 0 -- -- 62
2020-01-20 22:00:00 2.5 24 Nordeste 37 Nordeste 0 -- -- 59
2020-01-20 21:00:00 2.2 20 Nordeste 39 Nordeste 0 -- -- 58
2020-01-20 20:00:00 2.4 16 Nordeste 41 Nordeste 0 -- -- 50
2020-01-20 19:00:00 2.4 24 Nordeste 36 Nordeste 0 -- -- 51
2020-01-20 18:00:00 2.6 18 Nordeste 35 Nordeste 0 -- -- 51
2020-01-20 17:00:00 3.1 21 Este 37 Este 0 -- -- 51
2020-01-20 16:00:00 2.5 34 Este 47 Nordeste 0 -- -- 58
2020-01-20 15:00:00 3.5 34 Este 53 Este 0 -- -- 48
2020-01-20 14:00:00 2.8 37 Este 69 Este 0 -- -- 51
2020-01-20 13:00:00 2.2 41 Este 68 Este 0 -- -- 57
2020-01-20 12:00:00 1.8 47 Este 72 Nordeste 0 -- -- 59
2020-01-20 11:00:00 1.1 51 Este 65 Este 0 -- -- 68
2020-01-20 10:00:00 1.1 38 Este 56 Este 0 -- -- 64
2020-01-20 09:00:00 0.3 29 Este 59 Este 0 -- -- 68
2020-01-20 08:00:00 0 31 Este 50 Nordeste 0 -- -- 71
2020-01-20 07:00:00 -0.2 22 Sudeste 83 Nordeste 0 -- -- 72
2020-01-20 06:00:00 -0.2 16 Este 40 Nordeste 0 -- -- 76
2020-01-20 05:00:00 0.1 18 Nordeste 41 Nordeste 0 -- -- 82
2020-01-20 04:00:00 -0.3 13 Nordeste 30 Este 0 -- -- 83
2020-01-20 03:00:00 -0.2 21 Este 42 Este 0 -- -- 83
2020-01-20 02:00:00 0.4 28 Este 48 Este 0 -- -- 77
2020-01-20 01:00:00 0.8 31 Este 68 Este 0 -- -- 72
2020-01-20 00:00:00 1.4 48 Este 73 Este 0 -- -- 69
2020-01-19 23:00:00 1.4 46 Este 67 Este 0 -- -- 63
2020-01-19 22:00:00 1.3 42 Este 68 Este 0 -- -- 69
2020-01-19 21:00:00 1.5 42 Este 67 Este 0 -- -- 60
2020-01-19 20:00:00 1.7 45 Este 65 Este 0 -- -- 58
2020-01-19 19:00:00 1.8 35 Este 56 Este 0 -- -- 60
2020-01-19 18:00:00 2.4 35 Este 55 Este 0 -- -- 52
2020-01-19 17:00:00 3.3 33 Este 58 Este 0 -- -- 60
2020-01-19 16:00:00 3.9 41 Este 65 Nordeste 0 -- -- 54
2020-01-19 15:00:00 4.4 48 Nordeste 76 Nordeste 0 -- -- 57
2020-01-19 14:00:00 4.6 53 Nordeste 79 Nordeste 0 -- -- 63
2020-01-19 13:00:00 5 59 Nordeste 80 Nordeste 0 -- -- 59
2020-01-19 12:00:00 4.4 58 Nordeste 88 Nordeste 0 -- -- 57
2020-01-19 11:00:00 4.4 59 Nordeste 87 Nordeste 0 -- -- 53
2020-01-19 10:00:00 3.9 62 Nordeste 96 Nordeste 0 -- -- 68
2020-01-19 09:00:00 4.7 58 Nordeste 99 Nordeste 0 -- -- 64
2020-01-19 08:00:00 4.1 46 Nordeste 65 Nordeste 0 -- -- 70
2020-01-19 07:00:00 4.6 30 Nordeste 43 Nordeste 0 -- -- 72
2020-01-19 06:00:00 3.7 7 Oeste 23 Noroeste 0 -- -- 87
2020-01-19 05:00:00 2.9 6 Noroeste 19 Noroeste 0 -- -- 93
2020-01-19 04:00:00 2.8 6 Norte 23 Norte 0 -- -- 92
2020-01-19 03:00:00 2.5 16 Norte 24 Norte 0 -- -- 93
2020-01-19 02:00:00 2 8 Noroeste 13 Oeste 0 -- -- 96
2020-01-19 01:00:00 2.1 7 Norte 17 Norte 0 -- -- 95
2020-01-19 00:00:00 2.2 5 Oeste 26 Norte 0 -- -- 95
2020-01-18 23:00:00 2.6 14 Norte 31 Norte 0 -- -- 96
2020-01-18 22:00:00 2.5 18 Norte 39 Noroeste 0 -- -- 94
2020-01-18 21:00:00 3.2 16 Noroeste 38 Noroeste 0 -- -- 89
2020-01-18 20:00:00 2.7 21 Noroeste 37 Noroeste 0 -- -- 93
2020-01-18 19:00:00 3.7 17 Noroeste 41 Norte 0 -- -- 83
2020-01-18 18:00:00 3.3 15 Noroeste 45 Noroeste 0 -- -- 91
2020-01-18 17:00:00 5.4 25 Noroeste 51 Noroeste 0.8 -- -- 92
2020-01-18 16:00:00 6 27 Noroeste 45 Noroeste 1.8 -- -- 99
2020-01-18 15:00:00 4.7 3 Sudeste 8 Sudeste 0 -- -- 100
2020-01-18 14:00:00 3.4 6 Norte 8 Norte 0 -- -- 100
2020-01-18 13:00:00 3.3 3 Sudeste 8 Sudeste 0 -- -- 99
2020-01-18 12:00:00 2.7 5 Sudeste 11 Sudeste 0 -- -- 99
2020-01-18 11:00:00 2.2 4 Este 13 Este 0 -- -- 99
2020-01-18 10:00:00 1.8 8 Sudeste 13 Este 0.2 -- -- 98
2020-01-18 09:00:00 1.7 8 Este 17 Este 0 -- -- 97
2020-01-18 08:00:00 1.9 8 Este 10 Sudeste 0.2 -- -- 93
2020-01-18 07:00:00 2.4 5 Sudeste 10 Este 0 -- -- 88
2020-01-18 06:00:00 2 5 Este 13 Sudeste 0 -- -- 88
2020-01-18 05:00:00 2.1 7 Sudeste 12 Este 0 -- -- 87
2020-01-18 04:00:00 1.7 3 Nordeste 6 Nordeste 0 -- -- 90
2020-01-18 03:00:00 1.5 3 Sur 8 Este 0 -- -- 89
2020-01-18 02:00:00 1.8 0 Calma 12 Oeste 0 -- -- 89
2020-01-18 01:00:00 2.2 0 Calma 8 Norte 0 -- -- 84
2020-01-18 00:00:00 2.1 3 Norte 9 Norte 0 -- -- 88
2020-01-17 23:00:00 1.9 0 Calma 6 Norte 0 -- -- 88
2020-01-17 22:00:00 2.3 2 Norte 15 Norte 0 -- -- 86
2020-01-17 21:00:00 2 10 Norte 15 Norte 0 -- -- 88
2020-01-17 20:00:00 1.9 4 Norte 6 Noroeste 0 -- -- 89
2020-01-17 19:00:00 2.6 4 Norte 10 Oeste 0 -- -- 85
2020-01-17 18:00:00 3.5 8 Oeste 26 Oeste 0 -- -- 79
2020-01-17 17:00:00 4.6 18 Noroeste 37 Oeste 0 -- -- 74
2020-01-17 16:00:00 5.7 18 Noroeste 28 Noroeste 0 -- -- 68
2020-01-17 15:00:00 5.4 8 Norte 37 Noroeste 0 -- -- 70
2020-01-17 14:00:00 5.1 26 Noroeste 54 Noroeste 0 -- -- 65
2020-01-17 13:00:00 4.1 32 Noroeste 55 Norte 0 -- -- 80
2020-01-17 12:00:00 4.1 23 Noroeste 50 Noroeste 0 -- -- 81
2020-01-17 11:00:00 3.5 31 Noroeste 50 Noroeste 0 -- -- 82
2020-01-17 10:00:00 3 23 Noroeste 45 Noroeste 0 -- -- 91
2020-01-17 09:00:00 2.5 22 Noroeste 43 Noroeste 0.2 -- -- 92
2020-01-17 08:00:00 2.2 20 Noroeste 45 Noroeste 0.4 -- -- 93
2020-01-17 07:00:00 2.3 22 Noroeste 41 Noroeste 1.2 -- -- 93
2020-01-17 06:00:00 3.1 23 Noroeste 47 Noroeste 0 -- -- 95
2020-01-17 05:00:00 3.5 27 Noroeste 49 Noroeste 0.2 -- -- 92
2020-01-17 04:00:00 4.1 23 Noroeste 43 Noroeste 0 -- -- 92
2020-01-17 03:00:00 4.4 10 Oeste 22 Oeste 0.2 -- -- 97
2020-01-17 02:00:00 4.3 9 Noroeste 20 Noroeste 0.2 -- -- 96
2020-01-17 01:00:00 4.4 12 Noroeste 25 Noroeste 0 -- -- 94
2020-01-17 00:00:00 5.3 12 Oeste 27 Noroeste 0 -- -- 90
2020-01-16 23:00:00 5.1 3 Sur 11 Noroeste 0 -- -- 95
2020-01-16 22:00:00 5.5 3 Oeste 22 Sudoeste 0 -- -- 96
2020-01-16 21:00:00 5.7 13 Sudoeste 31 Sur 0 -- -- 94
2020-01-16 20:00:00 6.2 8 Sudoeste 33 Sudoeste 0 -- -- 90
2020-01-16 19:00:00 7 15 Sudoeste 35 Sudoeste 0 -- -- 85
2020-01-16 18:00:00 7.4 17 Sudoeste 40 Sudoeste 0 -- -- 83
2020-01-16 17:00:00 7.9 14 Sudoeste 37 Sudoeste 0 -- -- 82
2020-01-16 16:00:00 8.4 17 Sudoeste 36 Sudoeste 0 -- -- 79
2020-01-16 15:00:00 8.8 10 Sudoeste 38 Sudoeste 0 -- -- 77
2020-01-16 14:00:00 9.1 15 Sudoeste 44 Sudoeste 0 -- -- 81
2020-01-16 13:00:00 8.4 13 Sudoeste 30 Sur 0 -- -- 91
2020-01-16 12:00:00 8.7 16 Sudoeste 37 Sudoeste 0 -- -- 95
2020-01-16 11:00:00 7.6 16 Sudoeste 36 Sudoeste 0.2 -- -- 99
2020-01-16 10:00:00 7.4 17 Sudoeste 35 Sudoeste 0 -- -- 98
2020-01-16 09:00:00 7.3 13 Sudoeste 32 Sudoeste 0 -- -- 99
2020-01-16 08:00:00 7.3 16 Sudoeste 34 Sudoeste 0 -- -- 100
2020-01-16 07:00:00 7.3 18 Sudoeste 36 Sudoeste 0 -- -- 100
2020-01-16 06:00:00 7.3 9 Sudoeste 24 Sudoeste 0 -- -- 100
2020-01-16 05:00:00 7.4 12 Sudoeste 23 Sudoeste 0 -- -- 100
2020-01-16 04:00:00 7.1 3 Sur 10 Este 0 -- -- 100
2020-01-16 03:00:00 7 3 Este 14 Sudoeste 0 -- -- 100
2020-01-16 02:00:00 7 8 Sudoeste 15 Sudoeste 0.2 -- -- 100
2020-01-16 01:00:00 6.7 4 Sur 9 Sur 0 -- -- 100
2020-01-16 00:00:00 5.7 6 Sudeste 11 Sudeste 0.4 -- -- 100
2020-01-15 23:00:00 3.4 5 Nordeste 10 Este 0 -- -- 99
2020-01-15 22:00:00 2.7 6 Norte 14 Norte 0 -- -- 99
2020-01-15 21:00:00 2 7 Nordeste 13 Norte 0 -- -- 99
2020-01-15 20:00:00 2.6 7 Nordeste 9 Nordeste 0 -- -- 97
2020-01-15 19:00:00 4.5 2 Nordeste 10 Sudoeste 0 -- -- 94
2020-01-15 18:00:00 8.3 5 Sudoeste 16 Sudoeste 0 -- -- 82
2020-01-15 17:00:00 9.9 8 Sudoeste 19 Sudoeste 0 -- -- 79
2020-01-15 16:00:00 9.7 6 Sudoeste 13 Sudoeste 0 -- -- 82
2020-01-15 15:00:00 9.4 3 Sudeste 9 Sudoeste 0 -- -- 78
2020-01-15 14:00:00 9.2 3 Oeste 18 Sudoeste 0 -- -- 81
2020-01-15 13:00:00 8.5 10 Oeste 23 Oeste 0 -- -- 85
2020-01-15 12:00:00 7.2 9 Noroeste 19 Oeste 0 -- -- 88
2020-01-15 11:00:00 5.6 8 Norte 23 Noroeste 0 -- -- 91
2020-01-15 10:00:00 4.9 17 Noroeste 49 Oeste 3.6 -- -- 97
2020-01-15 09:00:00 5.7 11 Sudoeste 24 Sudoeste 0.8 -- -- 100
2020-01-15 08:00:00 5.6 5 Sudoeste 31 Sudoeste 0.8 -- -- 99
2020-01-15 07:00:00 5.5 10 Sudoeste 23 Sudoeste 0 -- -- 99
2020-01-15 06:00:00 5.5 9 Sudoeste 23 Sudoeste 0 -- -- 99
2020-01-15 05:00:00 5.3 10 Sudoeste 32 Sudoeste 0 -- -- 99
2020-01-15 04:00:00 5.1 15 Sudoeste 38 Sudoeste 0 -- -- 99
2020-01-15 03:00:00 4.7 15 Sudoeste 32 Sudoeste 0 -- -- 100
2020-01-15 02:00:00 4.3 5 Sudoeste 20 Sur 0 -- -- 100
2020-01-15 01:00:00 4.2 7 Sudoeste 24 Sur 0 -- -- 100
2020-01-15 00:00:00 4.2 11 Sudoeste 25 Sudoeste 0 -- -- 100
2020-01-14 23:00:00 4.2 11 Sudoeste 32 Sudoeste 0 -- -- 99
2020-01-14 22:00:00 3.8 15 Sudoeste 31 Sudoeste 0 -- -- 98
2020-01-14 21:00:00 4.3 15 Sudoeste 33 Sudoeste 0 -- -- 97
2020-01-14 20:00:00 4.2 5 Oeste 15 Sudeste 0 -- -- 97
2020-01-14 19:00:00 4.2 5 Sudeste 12 Sur 0 -- -- 98
2020-01-14 18:00:00 4.5 7 Sur 15 Sur 0 -- -- 97
2020-01-14 17:00:00 4.6 4 Sudeste 7 Sudoeste 0 -- -- 97
2020-01-14 16:00:00 4.2 4 Sudeste 10 Este 0 -- -- 100
2020-01-14 15:00:00 3.3 4 Sudeste 6 Este 0 -- -- 100
2020-01-14 14:00:00 2.7 3 Este 9 Sudeste 0 -- -- 100
2020-01-14 13:00:00 2.1 4 Sudeste 11 Este 0 -- -- 100
2020-01-14 12:00:00 1.8 3 Sudeste 9 Sudeste 0 -- -- 100
2020-01-14 11:00:00 1.2 7 Este 10 Sudeste 0 -- -- 100
2020-01-14 10:00:00 0.9 9 Sudeste 11 Este 0 -- -- 100
2020-01-14 09:00:00 0.6 6 Este 10 Este 0 -- -- 100
2020-01-14 08:00:00 0.3 5 Este 8 Este 0 -- -- 100
2020-01-14 07:00:00 -0.1 0 Calma 5 Este 0 -- -- 100
2020-01-14 06:00:00 -0.3 6 Este 9 Este 0 -- -- 100
2020-01-14 05:00:00 -0.7 0 Calma 6 Este 0 -- -- 100
2020-01-14 04:00:00 -0.9 4 Nordeste 8 Nordeste 0 -- -- 100
2020-01-14 03:00:00 -1.4 5 Nordeste 9 Nordeste 0 -- -- 99
2020-01-14 02:00:00 -1.6 2 Oeste 3 Oeste 0 -- -- 99
2020-01-14 01:00:00 -1.7 0 Calma 4 Oeste 0 -- -- 99
2020-01-14 00:00:00 -1.8 0 Calma 5 Sudoeste 0 -- -- 99
2020-01-13 23:00:00 -1.8 2 Sudoeste 5 Sudeste 0 -- -- 99
2020-01-13 22:00:00 -1.9 3 Sudeste 6 Este 0 -- -- 99
2020-01-13 21:00:00 -1.9 2 Sur 10 Sudeste 0 -- -- 99
2020-01-13 20:00:00 -2.3 3 Sudeste 13 Sudeste 0 -- -- 99
2020-01-13 19:00:00 -2.6 6 Sudeste 13 Sudeste 0 -- -- 98
2020-01-13 18:00:00 -2.8 5 Sudeste 10 Sudeste 0 -- -- 97
2020-01-13 17:00:00 -2 3 Sudeste 9 Sudoeste 0 -- -- 95
2020-01-13 16:00:00 -1.6 3 Sudeste 11 Sudoeste 0 -- -- 93
2020-01-13 15:00:00 1.4 6 Sudoeste 15 Sudoeste 0 -- -- 80
2020-01-13 14:00:00 1.8 4 Sur 13 Sur 0 -- -- 77
2020-01-13 13:00:00 1.2 6 Sudoeste 13 Sur 0 -- -- 82
2020-01-13 12:00:00 -0.4 3 Sudoeste 9 Oeste 0 -- -- 84
2020-01-13 11:00:00 -2.6 3 Sudoeste 5 Oeste 0 -- -- 89
2020-01-13 10:00:00 -3.8 0 Calma 3 Sudoeste 0 -- -- 89
2020-01-13 09:00:00 -4.4 2 Sudoeste 11 Norte 0 -- -- 90
2020-01-13 08:00:00 -2.4 5 Norte 9 Norte 0 -- -- 87
2020-01-13 07:00:00 -2.3 7 Norte 10 Norte 0 -- -- 85
2020-01-13 06:00:00 -2.4 3 Norte 10 Norte 0 -- -- 78
2020-01-13 05:00:00 -2.2 10 Norte 14 Norte 0 -- -- 80
2020-01-13 04:00:00 -2.2 4 Norte 13 Norte 0 -- -- 80
2020-01-13 03:00:00 -1.8 5 Norte 14 Norte 0 -- -- 73
2020-01-13 02:00:00 -1.8 10 Norte 14 Norte 0 -- -- 78
2020-01-13 01:00:00 -1.5 10 Norte 13 Norte 0 -- -- 78
2020-01-13 00:00:00 -1.6 5 Norte 11 Nordeste 0 -- -- 85
2020-01-12 23:00:00 -2.8 3 Nordeste 8 Nordeste 0 -- -- 98
2020-01-12 22:00:00 -1.7 4 Norte 6 Nordeste 0 -- -- 94
2020-01-12 21:00:00 -3.6 0 Calma 3 Noroeste 0 -- -- 97
2020-01-12 20:00:00 -2.2 0 Calma 4 Nordeste 0 -- -- 97
2020-01-12 19:00:00 -0.5 2 Norte 4 Norte 0 -- -- 96
2020-01-12 18:00:00 2.3 2 Sudoeste 6 Sudoeste 0 -- -- 87
2020-01-12 17:00:00 4.9 3 Sudoeste 9 Sur 0 -- -- 79
2020-01-12 16:00:00 6.5 4 Sudoeste 10 Sudoeste 0 -- -- 70
2020-01-12 15:00:00 6 4 Sur 11 Sudoeste 0 -- -- 76
2020-01-12 14:00:00 6 5 Sudoeste 9 Sur 0 -- -- 76
2020-01-12 13:00:00 4.7 5 Sudoeste 8 Sur 0 -- -- 79
2020-01-12 12:00:00 2.3 2 Sudoeste 4 Sudoeste 0 -- -- 86
2020-01-12 11:00:00 -1.5 0 Calma 4 Oeste 0 -- -- 93
2020-01-12 10:00:00 -3.9 4 Oeste 5 Oeste 0 -- -- 98
2020-01-12 09:00:00 -4.7 0 Calma 6 Nordeste 0 -- -- 96
2020-01-12 08:00:00 -2.7 2 Nordeste 10 Nordeste 0 -- -- 97
2020-01-12 07:00:00 -2.7 0 Calma 8 Norte 0 -- -- 95
2020-01-12 06:00:00 -1.5 3 Nordeste 4 Nordeste 0 -- -- 95
2020-01-12 05:00:00 -0.3 0 Calma 7 Sudoeste 0 -- -- 94
2020-01-12 04:00:00 0.2 5 Oeste 11 Este 0 -- -- 90
2020-01-12 03:00:00 2.9 5 Nordeste 22 Norte 0 -- -- 78
2020-01-12 02:00:00 2.5 13 Norte 21 Noroeste 0 -- -- 84
2020-01-12 01:00:00 -0.6 2 Sur 12 Norte 0 -- -- 93
2020-01-12 00:00:00 1.1 6 Norte 14 Norte 0 -- -- 88
2020-01-11 23:00:00 -0.7 0 Calma 14 Norte 0 -- -- 95
2020-01-11 22:00:00 0.1 9 Norte 14 Norte 0 -- -- 96
2020-01-11 21:00:00 0.6 11 Norte 17 Nordeste 0 -- -- 95
2020-01-11 20:00:00 1.1 9 Norte 12 Norte 0 -- -- 93
2020-01-11 19:00:00 2.5 4 Nordeste 6 Norte 0 -- -- 91
2020-01-11 18:00:00 6.5 3 Sudoeste 10 Sudoeste 0 -- -- 72
2020-01-11 17:00:00 8 5 Sur 10 Sur 0 -- -- 67
2020-01-11 16:00:00 8.4 4 Sur 9 Sudoeste 0 -- -- 63
2020-01-11 15:00:00 7.4 3 Sur 10 Sur 0 -- -- 67
2020-01-11 14:00:00 7.6 4 Sur 10 Sur 0 -- -- 66
2020-01-11 13:00:00 6 5 Sudoeste 11 Sudoeste 0 -- -- 72
2020-01-11 12:00:00 4.4 5 Sudoeste 9 Sudoeste 0 -- -- 78
2020-01-11 11:00:00 1.6 2 Norte 12 Norte 0 -- -- 86
2020-01-11 10:00:00 -1.1 10 Norte 14 Norte 0 -- -- 93
2020-01-11 09:00:00 -2.7 5 Nordeste 9 Nordeste 0 -- -- 97
2020-01-11 08:00:00 -2.4 8 Norte 12 Norte 0 -- -- 96
2020-01-11 07:00:00 -2.1 8 Norte 11 Norte 0 -- -- 97
2020-01-11 06:00:00 -2.2 5 Norte 12 Norte 0 -- -- 94
2020-01-11 05:00:00 -1.6 9 Norte 16 Norte 0 -- -- 96
2020-01-11 04:00:00 -1.6 7 Norte 10 Nordeste 0 -- -- 96
2020-01-11 03:00:00 -2 0 Calma 11 Norte 0 -- -- 93
2020-01-11 02:00:00 -1 5 Norte 13 Norte 0 -- -- 92
2020-01-11 01:00:00 -0.4 12 Norte 14 Norte 0 -- -- 92
2020-01-11 00:00:00 -0.1 9 Nordeste 11 Norte 0 -- -- 93
2020-01-10 23:00:00 0.4 5 Norte 13 Norte 0 -- -- 90
2020-01-10 22:00:00 0.7 6 Norte 11 Norte 0 -- -- 89
2020-01-10 21:00:00 1.3 9 Norte 16 Norte 0 -- -- 88
2020-01-10 20:00:00 1.9 9 Norte 13 Norte 0 -- -- 88
2020-01-10 19:00:00 2.6 8 Nordeste 17 Este 0 -- -- 86
2020-01-10 18:00:00 5.2 10 Este 14 Este 0 -- -- 73
2020-01-10 17:00:00 6.9 3 Oeste 10 Oeste 0 -- -- 65
2020-01-10 16:00:00 7.6 3 Oeste 9 Oeste 0 -- -- 63
2020-01-10 15:00:00 7 6 Oeste 19 Oeste 0 -- -- 64
2020-01-10 14:00:00 6.7 10 Oeste 22 Oeste 0 -- -- 68
2020-01-10 13:00:00 6.3 5 Oeste 16 Oeste 0 -- -- 71
2020-01-10 12:00:00 5.4 10 Noroeste 27 Oeste 0 -- -- 75
2020-01-10 11:00:00 2.8 6 Noroeste 20 Oeste 0 -- -- 85
2020-01-10 10:00:00 1 8 Nordeste 24 Noroeste 0 -- -- 90
2020-01-10 09:00:00 -0.5 2 Oeste 6 Sur 0 -- -- 93
2020-01-10 08:00:00 0.2 5 Sudoeste 12 Noroeste 0 -- -- 90
2020-01-10 07:00:00 0.7 5 Norte 15 Noroeste 0 -- -- 91
2020-01-10 06:00:00 0.1 3 Noroeste 12 Norte 0 -- -- 93
2020-01-10 05:00:00 0.6 10 Noroeste 18 Noroeste 0 -- -- 91
2020-01-10 04:00:00 0.9 6 Norte 21 Noroeste 0 -- -- 89
2020-01-10 03:00:00 1.2 3 Noroeste 22 Noroeste 0 -- -- 91
2020-01-10 02:00:00 1.6 4 Noroeste 15 Noroeste 0 -- -- 89
2020-01-10 01:00:00 2.1 9 Norte 24 Norte 0 -- -- 88
2020-01-10 00:00:00 1.8 9 Nordeste 24 Noroeste 0 -- -- 90
2020-01-09 23:00:00 2.4 14 Norte 35 Noroeste 0 -- -- 86
2020-01-09 22:00:00 2.6 17 Norte 33 Noroeste 0 -- -- 83
2020-01-09 21:00:00 2.8 19 Norte 40 Noroeste 0 -- -- 84
2020-01-09 20:00:00 3.1 15 Noroeste 30 Noroeste 0 -- -- 86
2020-01-09 19:00:00 5.2 14 Noroeste 41 Noroeste 0 -- -- 81
2020-01-09 18:00:00 6.1 17 Noroeste 52 Oeste 0.2 -- -- 75
2020-01-09 17:00:00 7.2 19 Noroeste 53 Noroeste 0.2 -- -- 89
2020-01-09 16:00:00 9.2 30 Noroeste 57 Noroeste 0.4 -- -- 85
2020-01-09 15:00:00 11.2 30 Noroeste 56 Oeste 0 -- -- 73
2020-01-09 14:00:00 10.2 6 Sudoeste 24 Noroeste 0 -- -- 76
2020-01-09 13:00:00 9.7 13 Oeste 28 Noroeste 0 -- -- 83
2020-01-09 12:00:00 7.9 6 Sudoeste 10 Sur 0 -- -- 86
2020-01-09 11:00:00 6.3 4 Sudoeste 9 Sur 0 -- -- 90
2020-01-09 10:00:00 6.6 5 Oeste 10 Sudoeste 0 -- -- 97
2020-01-09 09:00:00 6.4 6 Oeste 18 Norte 0 -- -- 95
2020-01-09 08:00:00 6.3 8 Oeste 13 Oeste 0 -- -- 94
2020-01-09 07:00:00 6.5 6 Oeste 11 Oeste 0 -- -- 95
2020-01-09 06:00:00 5.5 5 Oeste 10 Oeste 0 -- -- 96
2020-01-09 05:00:00 5.3 0 Calma 6 Norte 0 -- -- 89
2020-01-09 04:00:00 4.9 4 Norte 8 Sur 0 -- -- 92
2020-01-09 03:00:00 5.4 4 Sur 11 Noroeste 0 -- -- 92
2020-01-09 02:00:00 6.9 2 Noroeste 10 Norte 0 -- -- 91
2020-01-09 01:00:00 6.8 8 Norte 21 Norte 0 -- -- 89
2020-01-09 00:00:00 7.7 14 Norte 21 Norte 0 -- -- 79
2020-01-08 23:00:00 6.8 11 Nordeste 18 Nordeste 0 -- -- 77
2020-01-08 22:00:00 5.9 9 Norte 19 Norte 0 -- -- 73
2020-01-08 21:00:00 4.4 16 Norte 18 Norte 0 -- -- 74
2020-01-08 20:00:00 5.1 12 Norte 15 Norte 0 -- -- 72
2020-01-08 19:00:00 5.8 9 Norte 10 Norte 0 -- -- 74
2020-01-08 18:00:00 11.2 0 Calma 9 Sudoeste 0 -- -- 55
2020-01-08 17:00:00 13.2 5 Sudoeste 13 Sudoeste 0 -- -- 49
2020-01-08 16:00:00 14.1 7 Sudoeste 13 Sudoeste 0 -- -- 43
2020-01-08 15:00:00 13.7 4 Sur 10 Sudoeste 0 -- -- 37
2020-01-08 14:00:00 13.5 6 Sur 11 Sudoeste 0 -- -- 39
2020-01-08 13:00:00 12.1 4 Sudoeste 9 Sur 0 -- -- 42
2020-01-08 12:00:00 10 0 Calma 3 Sur 0 -- -- 56
2020-01-08 11:00:00 7.2 0 Calma 10 Norte 0 -- -- 62
2020-01-08 10:00:00 3.9 6 Norte 10 Norte 0 -- -- 70
2020-01-08 09:00:00 1.9 4 Nordeste 6 Nordeste 0 -- -- 81
2020-01-08 08:00:00 1.9 4 Nordeste 9 Nordeste 0 -- -- 84
2020-01-08 07:00:00 1.6 4 Norte 8 Norte 0 -- -- 80
2020-01-08 06:00:00 1.3 4 Norte 7 Norte 0 -- -- 82
2020-01-08 05:00:00 1.4 4 Nordeste 7 Norte 0 -- -- 83
2020-01-08 04:00:00 1.8 2 Este 10 Norte 0 -- -- 78
2020-01-08 03:00:00 2.2 5 Nordeste 7 Norte 0 -- -- 75
2020-01-08 02:00:00 3.7 3 Norte 10 Norte 0 -- -- 70
2020-01-08 01:00:00 3.7 0 Calma 6 Nordeste 0 -- -- 72
2020-01-08 00:00:00 4 0 Calma 12 Norte 0 -- -- 60
2020-01-07 23:00:00 1.8 5 Nordeste 10 Norte 0 -- -- 86
2020-01-07 22:00:00 2.3 2 Norte 14 Norte 0 -- -- 76
2020-01-07 21:00:00 2.1 4 Nordeste 9 Norte 0 -- -- 80
2020-01-07 20:00:00 2.9 2 Nordeste 12 Norte 0 -- -- 80
2020-01-07 19:00:00 3.7 4 Nordeste 8 Norte 0 -- -- 77
2020-01-07 18:00:00 8.3 0 Calma 6 Sudoeste 0 -- -- 57
2020-01-07 17:00:00 10.6 3 Sur 10 Sur 0 -- -- 44
2020-01-07 16:00:00 11.4 5 Sudoeste 13 Sur 0 -- -- 45
2020-01-07 15:00:00 11.5 4 Sudoeste 12 Sur 0 -- -- 42
2020-01-07 14:00:00 10.6 4 Sudoeste 8 Sur 0 -- -- 40
2020-01-07 13:00:00 9.1 4 Sur 7 Sur 0 -- -- 47
2020-01-07 12:00:00 7.5 0 Calma 4 Norte 0 -- -- 58
2020-01-07 11:00:00 3.5 0 Calma 11 Norte 0 -- -- 67
2020-01-07 10:00:00 1.1 10 Norte 14 Norte 0 -- -- 68
2020-01-07 09:00:00 -0.2 7 Norte 14 Norte 0 -- -- 75
2020-01-07 08:00:00 -0.2 9 Norte 11 Norte 0 -- -- 76
2020-01-07 07:00:00 0.2 9 Norte 12 Norte 0 -- -- 77
2020-01-07 06:00:00 0.6 5 Norte 13 Norte 0 -- -- 80
2020-01-07 05:00:00 0.6 9 Norte 15 Norte 0 -- -- 76
2020-01-07 04:00:00 0.5 12 Norte 14 Norte 0 -- -- 75
2020-01-07 03:00:00 -0.4 4 Nordeste 9 Norte 0 -- -- 87
2020-01-07 02:00:00 -2.4 0 Calma 6 Noroeste 0 -- -- 93
2020-01-07 01:00:00 -3 5 Norte 8 Norte 0 -- -- 98
2020-01-07 00:00:00 -4.6 0 Calma 5 Noroeste 0 -- -- 96
2020-01-06 23:00:00 -3.6 2 Sudoeste 8 Sudoeste 0 -- -- 94
2020-01-06 22:00:00 -1.8 3 Sur 11 Norte 0 -- -- 90
2020-01-06 21:00:00 1.9 6 Norte 14 Norte 0 -- -- 76
2020-01-06 20:00:00 -0.6 2 Sudoeste 5 Oeste 0 -- -- 89
2020-01-06 19:00:00 1.4 2 Sur 12 Sur 0 -- -- 81
2020-01-06 18:00:00 6.4 4 Sudeste 12 Noroeste 0 -- -- 54
2020-01-06 17:00:00 6 4 Sur 10 Sudeste 0 -- -- 68
2020-01-06 16:00:00 5.4 4 Sudoeste 8 Oeste 0 -- -- 71
2020-01-06 15:00:00 5.2 2 Sudoeste 7 Sudoeste 0 -- -- 71
2020-01-06 14:00:00 5 4 Sudoeste 9 Sur 0 -- -- 69
2020-01-06 13:00:00 4.9 2 Sur 8 Sudoeste 0 -- -- 65
2020-01-06 12:00:00 3.8 4 Sur 9 Sur 0 -- -- 65
2020-01-06 11:00:00 1 3 Sur 8 Sudoeste 0 -- -- 74
2020-01-06 10:00:00 -0.4 0 Calma 6 Nordeste 0 -- -- 76